createdAt,value
2022-11-08T00:01:31.561Z,32.47
2022-11-08T00:03:33.414Z,32.75
2022-11-08T00:05:54.003Z,34.23
2022-11-08T00:08:14.474Z,29.80
2022-11-08T00:10:34.924Z,31.52
2022-11-08T00:12:55.739Z,30.02
2022-11-08T00:14:57.900Z,31.27
2022-11-08T00:16:59.735Z,30.00
2022-11-08T00:19:01.863Z,33.45
2022-11-08T00:21:03.849Z,34.42
2022-11-08T00:23:07.245Z,33.53
2022-11-08T00:25:10.765Z,30.10
2022-11-08T00:27:15.323Z,28.52
2022-11-08T00:29:17.103Z,32.47
2022-11-08T00:31:19.247Z,31.05
2022-11-08T00:33:21.254Z,32.92
2022-11-08T00:35:23.054Z,35.03
2022-11-08T00:37:25.815Z,32.65
2022-11-08T00:39:27.768Z,32.55
2022-11-08T00:41:29.547Z,30.92
2022-11-08T00:43:31.721Z,29.90
2022-11-08T00:45:33.481Z,32.97
2022-11-08T00:47:35.279Z,31.38
2022-11-08T00:49:37.843Z,27.27
2022-11-08T00:51:39.857Z,32.17
2022-11-08T00:53:41.851Z,26.73
2022-11-08T00:55:44.134Z,31.67
2022-11-08T00:58:01.149Z,35.25
2022-11-08T01:00:03.523Z,28.40
2022-11-08T01:02:05.813Z,33.17
2022-11-08T01:04:09.342Z,34.53
2022-11-08T01:06:13.595Z,33.30
2022-11-08T01:08:16.677Z,33.17
2022-11-08T01:10:18.913Z,33.78
2022-11-08T01:12:20.788Z,30.95
2022-11-08T01:14:23.116Z,31.73
2022-11-08T01:16:27.529Z,31.00
2022-11-08T01:18:29.486Z,26.58
2022-11-08T01:20:31.647Z,29.90
2022-11-08T01:22:33.439Z,28.10
2022-11-08T01:24:35.292Z,30.95
2022-11-08T01:26:37.472Z,32.63
2022-11-08T01:28:39.368Z,28.73
2022-11-08T01:30:42.987Z,29.33
2022-11-08T01:32:45.186Z,32.15
2022-11-08T01:34:46.973Z,28.45
2022-11-08T01:36:48.839Z,28.65
2022-11-08T01:38:51.189Z,32.08
2022-11-08T01:40:53.342Z,31.05
2022-11-08T01:42:55.209Z,29.25
2022-11-08T01:45:03.249Z,28.35
2022-11-08T01:47:05.014Z,29.25
2022-11-08T01:49:15.871Z,29.63
2022-11-08T01:51:22.023Z,33.35
2022-11-08T01:53:24.346Z,28.75
2022-11-08T01:55:31.019Z,31.27
2022-11-08T01:57:44.201Z,28.30
2022-11-08T01:59:48.028Z,27.58
2022-11-08T02:01:50.097Z,30.55
2022-11-08T02:03:52.966Z,30.17
2022-11-08T02:05:54.998Z,29.98
2022-11-08T02:08:15.093Z,32.35
2022-11-08T02:10:18.436Z,26.58
2022-11-08T02:12:22.435Z,31.48
2022-11-08T02:14:24.263Z,31.92
2022-11-08T02:16:26.437Z,31.02
2022-11-08T02:18:32.045Z,29.48
2022-11-08T02:20:34.334Z,29.45
2022-11-08T02:22:46.740Z,28.33
2022-11-08T02:24:48.583Z,28.00
2022-11-08T02:26:53.203Z,27.58
2022-11-08T02:28:55.807Z,32.83
2022-11-08T02:30:57.670Z,26.50
2022-11-08T02:32:59.517Z,29.95
2022-11-08T02:35:01.840Z,30.33
2022-11-08T02:37:04.280Z,28.30
2022-11-08T02:39:06.150Z,33.47
2022-11-08T02:41:08.633Z,28.40
2022-11-08T02:43:10.657Z,28.20
2022-11-08T02:45:12.451Z,31.33
2022-11-08T02:47:15.605Z,32.95
2022-11-08T02:51:19.613Z,29.33
2022-11-08T02:53:22.218Z,27.13
2022-11-08T02:55:24.199Z,28.42
2022-11-08T02:57:26.035Z,31.75
2022-11-08T02:59:28.221Z,34.53
2022-11-08T03:01:30.067Z,27.75
2022-11-08T03:03:31.988Z,34.05
2022-11-08T03:05:34.256Z,31.07
2022-11-08T03:07:36.171Z,29.25
2022-11-08T03:09:38.166Z,32.13
2022-11-08T03:11:40.347Z,26.52
2022-11-08T03:13:42.099Z,32.13
2022-11-08T03:15:43.972Z,26.40
2022-11-08T03:17:46.153Z,27.15
2022-11-08T03:19:47.929Z,29.40
2022-11-08T03:21:49.818Z,31.98
2022-11-08T03:23:52.009Z,31.23
2022-11-08T03:25:54.124Z,31.27
2022-11-08T03:27:56.397Z,29.37
2022-11-08T03:29:58.571Z,31.50
2022-11-08T03:32:00.658Z,34.05
2022-11-08T03:34:02.708Z,28.40
2022-11-08T03:36:05.457Z,27.38
2022-11-08T03:38:07.295Z,37.08
2022-11-08T03:40:10.008Z,32.42
2022-11-08T03:42:12.481Z,34.80
2022-11-08T03:44:14.272Z,38.47
2022-11-08T03:46:16.363Z,33.90
2022-11-08T03:48:19.269Z,30.30
2022-11-08T03:50:21.588Z,34.40
2022-11-08T03:52:23.374Z,29.67
2022-11-08T03:54:25.707Z,33.28
2022-11-08T03:56:27.505Z,32.05
2022-11-08T03:58:29.398Z,36.03
2022-11-08T04:00:31.516Z,32.50
2022-11-08T04:02:33.807Z,30.83
2022-11-08T04:04:35.627Z,36.28
2022-11-08T04:06:37.918Z,32.43
2022-11-08T04:08:39.682Z,31.33
2022-11-08T04:10:41.495Z,32.60
2022-11-08T04:13:02.159Z,35.67
2022-11-08T04:15:16.483Z,32.17
2022-11-08T04:17:18.257Z,35.45
2022-11-08T04:19:39.304Z,34.10
2022-11-08T04:21:43.743Z,33.13
2022-11-08T04:23:47.119Z,34.60
2022-11-08T04:25:56.033Z,37.38
2022-11-08T04:27:57.821Z,33.38
2022-11-08T04:29:59.647Z,35.03
2022-11-08T04:32:01.833Z,37.38
2022-11-08T04:34:03.992Z,33.08
2022-11-08T04:36:16.871Z,35.47
2022-11-08T04:38:20.260Z,31.15
2022-11-08T04:40:22.340Z,36.22
2022-11-08T04:42:24.209Z,30.10
2022-11-08T04:44:26.350Z,31.55
2022-11-08T04:46:29.460Z,30.85
2022-11-08T04:50:34.458Z,33.20
2022-11-08T04:52:36.306Z,32.25
2022-11-08T04:54:38.430Z,33.38
2022-11-08T04:56:41.970Z,29.42
2022-11-08T04:58:45.750Z,33.67
2022-11-08T05:00:47.533Z,29.85
2022-11-08T05:02:49.782Z,34.67
2022-11-08T05:04:51.634Z,37.63
2022-11-08T05:06:53.742Z,32.50
2022-11-08T05:08:56.862Z,32.80
2022-11-08T05:11:10.300Z,37.40
2022-11-08T05:15:14.282Z,36.00
2022-11-08T05:17:16.406Z,37.25
2022-11-08T05:19:38.169Z,36.00
2022-11-08T05:21:58.739Z,36.40
2022-11-08T05:24:01.684Z,35.35
2022-11-08T05:26:03.626Z,36.95
2022-11-08T05:28:05.891Z,35.35
2022-11-08T05:30:08.285Z,36.22
2022-11-08T05:32:10.070Z,41.53
2022-11-08T05:34:12.289Z,36.50
2022-11-08T05:36:16.485Z,38.50
2022-11-08T05:38:19.385Z,36.20
2022-11-08T05:40:22.444Z,38.88
2022-11-08T05:42:24.254Z,37.45
2022-11-08T05:44:26.107Z,39.53
2022-11-08T05:46:28.282Z,41.22
2022-11-08T05:48:30.390Z,40.80
2022-11-08T05:50:36.174Z,39.63
2022-11-08T05:52:38.492Z,39.58
2022-11-08T05:54:40.520Z,38.30
2022-11-08T05:56:42.385Z,37.05
2022-11-08T05:58:45.677Z,38.20
2022-11-08T06:00:47.537Z,40.88
2022-11-08T06:02:49.442Z,43.35
2022-11-08T06:04:51.718Z,34.63
2022-11-08T06:06:53.709Z,33.30
2022-11-08T06:08:55.596Z,37.30
2022-11-08T06:11:05.352Z,39.08
2022-11-08T06:13:07.232Z,38.45
2022-11-08T06:15:09.808Z,36.90
2022-11-08T06:17:12.347Z,34.15
2022-11-08T06:19:14.158Z,36.67
2022-11-08T06:21:18.791Z,38.58
2022-11-08T06:23:21.123Z,38.22
2022-11-08T06:25:23.449Z,31.63
2022-11-08T06:27:25.395Z,33.95
2022-11-08T06:29:27.575Z,30.15
2022-11-08T06:31:29.625Z,30.38
2022-11-08T06:33:32.191Z,29.47
2022-11-08T06:35:34.376Z,25.63
2022-11-08T06:37:39.218Z,25.00
2022-11-08T06:39:41.908Z,27.67
2022-11-08T06:41:44.087Z,30.45
2022-11-08T06:43:46.039Z,26.67
2022-11-08T06:45:48.236Z,27.25
2022-11-08T06:47:50.677Z,26.02
2022-11-08T06:49:52.514Z,28.90
2022-11-08T06:51:54.491Z,29.83
2022-11-08T06:53:56.660Z,29.52
2022-11-08T06:56:00.286Z,27.80
2022-11-08T06:58:02.927Z,30.90
2022-11-08T07:00:05.739Z,27.48
2022-11-08T07:02:10.256Z,26.77
2022-11-08T07:04:12.372Z,28.88
2022-11-08T07:06:14.553Z,28.08
2022-11-08T07:08:22.317Z,29.52
2022-11-08T07:10:28.864Z,30.55
2022-11-08T07:12:31.628Z,28.20
2022-11-08T07:14:33.931Z,38.33
2022-11-08T07:16:35.717Z,27.65
2022-11-08T07:18:38.053Z,32.40
2022-11-08T07:20:40.535Z,32.67
2022-11-08T07:22:42.350Z,26.88
2022-11-08T07:24:44.547Z,32.40
2022-11-08T07:26:46.359Z,28.50
2022-11-08T07:28:48.144Z,29.48
2022-11-08T07:30:50.571Z,30.05
2022-11-08T07:32:52.705Z,27.57
2022-11-08T07:34:54.496Z,58.67
2022-11-08T07:36:56.742Z,37.63
2022-11-08T07:39:00.184Z,24.92
2022-11-08T07:41:05.884Z,29.42
2022-11-08T07:43:12.712Z,25.70
2022-11-08T07:45:15.013Z,28.45
2022-11-08T07:47:16.835Z,29.25
2022-11-08T07:49:19.148Z,25.70
2022-11-08T07:51:20.974Z,29.57
2022-11-08T07:53:23.263Z,25.15
2022-11-08T07:55:26.487Z,22.35
2022-11-08T07:59:30.089Z,25.75
2022-11-08T08:01:32.898Z,20.60
2022-11-08T08:03:35.561Z,23.48
2022-11-08T08:05:41.168Z,25.00
2022-11-08T08:07:43.339Z,29.30
2022-11-08T08:09:45.233Z,23.15
2022-11-08T08:11:47.263Z,23.05
2022-11-08T08:13:49.565Z,22.60
2022-11-08T08:15:51.424Z,22.67
2022-11-08T08:17:53.579Z,20.38
2022-11-08T08:19:55.970Z,21.75
2022-11-08T08:21:57.904Z,20.27
2022-11-08T08:23:59.743Z,20.52
2022-11-08T08:26:02.650Z,22.90
2022-11-08T08:28:05.923Z,23.55
2022-11-08T08:30:08.449Z,23.55
2022-11-08T08:34:12.557Z,23.00
2022-11-08T08:36:14.363Z,22.43
2022-11-08T08:38:16.566Z,18.90
2022-11-08T08:40:18.483Z,24.17
2022-11-08T08:42:20.339Z,24.47
2022-11-08T08:44:22.507Z,23.30
2022-11-08T08:46:24.355Z,29.20
2022-11-08T08:48:26.171Z,25.45
2022-11-08T08:50:30.574Z,20.33
2022-11-08T08:52:32.410Z,21.40
2022-11-08T08:54:34.235Z,21.02
2022-11-08T08:56:36.401Z,23.95
2022-11-08T08:58:38.766Z,25.38
2022-11-08T09:03:04.754Z,22.92
2022-11-08T09:05:06.729Z,20.88
2022-11-08T09:07:08.722Z,22.27
2022-11-08T09:09:10.967Z,17.85
2022-11-08T09:11:12.834Z,21.75
2022-11-08T09:13:14.800Z,20.30
2022-11-08T09:15:17.495Z,17.90
2022-11-08T09:17:19.342Z,18.73
2022-11-08T09:19:21.107Z,22.17
2022-11-08T09:21:23.258Z,20.10
2022-11-08T09:23:25.211Z,17.85
2022-11-08T09:25:26.980Z,21.27
2022-11-08T09:27:30.861Z,19.80
2022-11-08T09:29:33.475Z,26.52
2022-11-08T09:31:35.669Z,21.48
2022-11-08T09:33:39.340Z,15.98
2022-11-08T09:35:41.170Z,22.27
2022-11-08T09:37:47.098Z,17.30
2022-11-08T09:39:52.070Z,15.93
2022-11-08T09:41:56.895Z,22.23
2022-11-08T09:44:17.285Z,17.77
2022-11-08T09:46:31.049Z,20.30
2022-11-08T09:48:36.963Z,19.00
2022-11-08T09:50:43.237Z,22.20
2022-11-08T09:53:06.702Z,15.68
2022-11-08T09:55:36.574Z,14.75
2022-11-08T09:57:50.757Z,20.67
2022-11-08T10:00:00.364Z,16.45
2022-11-08T10:02:02.453Z,19.75
2022-11-08T10:04:27.487Z,19.17
2022-11-08T10:06:44.134Z,15.85
2022-11-08T10:09:03.591Z,13.88
2022-11-08T10:11:24.320Z,16.48
2022-11-08T10:13:32.058Z,17.75
2022-11-08T10:15:43.317Z,17.00
2022-11-08T10:17:57.521Z,15.30
2022-11-08T10:20:12.707Z,14.25
2022-11-08T10:22:32.328Z,13.82
2022-11-08T10:24:54.222Z,13.68
2022-11-08T10:26:58.923Z,13.02
2022-11-08T10:29:07.786Z,15.02
2022-11-08T10:31:13.279Z,15.90
2022-11-08T10:33:22.553Z,17.65
2022-11-08T10:35:30.527Z,14.80
2022-11-08T10:37:33.484Z,15.70
2022-11-08T10:39:43.107Z,21.92
2022-11-08T10:41:50.845Z,13.82
2022-11-08T10:44:05.742Z,14.45
2022-11-08T10:46:25.218Z,11.32
2022-11-08T10:48:27.438Z,12.18
2022-11-08T10:50:45.188Z,16.05
2022-11-08T10:52:53.274Z,13.23
2022-11-08T10:54:57.777Z,14.20
2022-11-08T10:56:59.919Z,12.27
2022-11-08T10:59:01.686Z,13.45
2022-11-08T11:01:19.046Z,13.43
2022-11-08T11:03:28.915Z,9.95
2022-11-08T11:05:36.193Z,17.85
2022-11-08T11:07:38.203Z,17.48
2022-11-08T11:09:40.570Z,10.90
2022-11-08T11:11:42.591Z,11.63
2022-11-08T11:13:44.577Z,12.82
2022-11-08T11:16:07.200Z,10.25
2022-11-08T11:18:21.944Z,10.75
2022-11-08T11:20:24.198Z,9.05
2022-11-08T11:22:34.450Z,7.80
2022-11-08T11:24:46.420Z,10.60
2022-11-08T11:26:59.538Z,11.88
2022-11-08T11:29:13.605Z,13.07
2022-11-08T11:31:17.192Z,9.32
2022-11-08T11:33:26.811Z,10.43
2022-11-08T11:35:36.945Z,7.97
2022-11-08T11:37:46.990Z,8.48
2022-11-08T11:40:07.442Z,5.97
2022-11-08T11:42:43.696Z,11.60
2022-11-08T11:44:55.554Z,8.63
2022-11-08T11:47:06.001Z,9.85
2022-11-08T11:49:17.778Z,13.80
2022-11-08T11:51:19.728Z,11.23
2022-11-08T11:53:33.050Z,16.95
2022-11-08T11:56:06.996Z,13.57
2022-11-08T11:58:30.286Z,14.18
2022-11-08T12:00:39.747Z,12.63
2022-11-08T12:02:58.967Z,9.57
2022-11-08T12:05:21.848Z,14.40
2022-11-08T12:07:28.542Z,14.10
2022-11-08T12:09:57.553Z,10.55
2022-11-08T12:12:25.926Z,11.80
2022-11-08T12:14:33.837Z,13.02
2022-11-08T12:16:46.442Z,11.32
2022-11-08T12:18:57.102Z,11.82
2022-11-08T12:21:15.152Z,8.57
2022-11-08T12:23:32.479Z,10.98
2022-11-08T12:25:51.886Z,8.82
2022-11-08T12:28:02.049Z,12.90
2022-11-08T12:30:10.527Z,12.18
2022-11-08T12:32:29.387Z,7.57
2022-11-08T12:34:42.845Z,9.32
2022-11-08T12:37:29.053Z,17.00
2022-11-08T12:39:37.439Z,12.02
2022-11-08T12:41:59.599Z,11.18
2022-11-08T12:44:32.581Z,10.68
2022-11-08T12:47:00.810Z,11.55
2022-11-08T12:49:43.759Z,11.88
2022-11-08T12:52:06.847Z,9.48
2022-11-08T12:54:23.023Z,9.75
2022-11-08T12:56:29.848Z,8.70
2022-11-08T12:58:54.452Z,9.63
2022-11-08T13:01:02.464Z,9.85
2022-11-08T13:03:22.707Z,10.52
2022-11-08T13:05:40.358Z,12.73
2022-11-08T13:07:52.385Z,8.45
2022-11-08T13:10:13.042Z,10.80
2022-11-08T13:12:33.282Z,11.13
2022-11-08T13:14:40.976Z,10.98
2022-11-08T13:16:46.444Z,13.55
2022-11-08T13:18:53.826Z,12.13
2022-11-08T13:20:56.575Z,10.48
2022-11-08T13:23:00.557Z,12.75
2022-11-08T13:25:28.317Z,9.68
2022-11-08T13:27:35.917Z,12.10
2022-11-08T13:29:38.911Z,13.02
2022-11-08T13:33:56.675Z,11.02
2022-11-08T13:36:19.211Z,11.27
2022-11-08T13:38:40.464Z,11.77
2022-11-08T13:41:01.067Z,12.27
2022-11-08T13:43:25.191Z,15.63
2022-11-08T13:45:33.834Z,11.48
2022-11-08T13:47:40.059Z,11.75
2022-11-08T13:49:42.920Z,12.80
2022-11-08T13:53:51.502Z,13.73
2022-11-08T13:55:53.878Z,15.70
2022-11-08T13:57:59.305Z,16.38
2022-11-08T14:00:01.782Z,12.63
2022-11-08T14:02:30.292Z,13.65
2022-11-08T14:04:40.858Z,12.90
2022-11-08T14:07:01.454Z,13.63
2022-11-08T14:09:07.779Z,12.35
2022-11-08T14:11:21.899Z,13.88
2022-11-08T14:13:32.634Z,14.57
2022-11-08T14:15:46.599Z,18.13
2022-11-08T14:18:00.123Z,14.45
2022-11-08T14:20:28.361Z,12.32
2022-11-08T14:22:30.626Z,17.45
2022-11-08T14:24:37.354Z,14.45
2022-11-08T14:26:46.947Z,18.30
2022-11-08T14:28:50.653Z,19.27
2022-11-08T14:30:53.019Z,13.65
2022-11-08T14:35:25.881Z,15.50
2022-11-08T14:37:28.341Z,15.35
2022-11-08T14:39:36.848Z,16.10
2022-11-08T14:41:39.693Z,14.13
2022-11-08T14:43:44.054Z,18.90
2022-11-08T14:45:46.551Z,14.65
2022-11-08T14:48:03.279Z,17.85
2022-11-08T14:50:16.316Z,16.90
2022-11-08T14:52:20.219Z,14.30
2022-11-08T14:54:26.996Z,16.25
2022-11-08T14:56:37.825Z,17.80
2022-11-08T14:58:40.071Z,16.30
2022-11-08T15:00:44.060Z,16.95
2022-11-08T15:02:52.068Z,20.67
2022-11-08T15:04:54.568Z,18.45
2022-11-08T15:06:59.063Z,14.07
2022-11-08T15:09:02.705Z,25.55
2022-11-08T15:11:28.375Z,18.52
2022-11-08T15:13:38.619Z,19.30
2022-11-08T15:15:40.709Z,19.52
2022-11-08T15:17:42.987Z,18.70
2022-11-08T15:19:46.467Z,16.73
2022-11-08T15:21:51.562Z,24.45
2022-11-08T15:23:55.034Z,17.35
2022-11-08T15:25:59.476Z,19.45
2022-11-08T15:28:21.468Z,16.65
2022-11-08T15:30:29.871Z,20.13
2022-11-08T15:32:39.868Z,17.67
2022-11-08T15:34:41.998Z,16.65
2022-11-08T15:36:44.258Z,13.75
2022-11-08T15:38:49.657Z,17.02
2022-11-08T15:40:54.967Z,18.83
2022-11-08T15:42:57.979Z,14.45
2022-11-08T15:45:26.134Z,17.15
2022-11-08T15:47:46.123Z,20.30
2022-11-08T15:49:48.650Z,16.50
2022-11-08T15:51:52.942Z,18.30
2022-11-08T15:53:54.801Z,14.85
2022-11-08T15:56:01.311Z,19.42
2022-11-08T15:58:04.763Z,14.60
2022-11-08T16:00:07.435Z,18.95
2022-11-08T16:04:14.317Z,18.42
2022-11-08T16:06:16.314Z,12.93
2022-11-08T16:08:20.921Z,19.17
2022-11-08T16:10:31.332Z,15.57
2022-11-08T16:12:33.211Z,18.10
2022-11-08T16:14:35.366Z,22.00
2022-11-08T16:16:37.229Z,17.90
2022-11-08T16:18:40.218Z,28.38
2022-11-08T16:20:42.431Z,23.83
2022-11-08T16:22:44.606Z,22.40
2022-11-08T16:24:46.415Z,20.05
2022-11-08T16:26:49.257Z,18.10
2022-11-08T16:28:51.148Z,18.25
2022-11-08T16:30:53.688Z,23.38
2022-11-08T16:32:56.504Z,24.98
2022-11-08T16:34:58.427Z,20.40
2022-11-08T16:37:00.650Z,17.10
2022-11-08T16:39:03.979Z,18.02
2022-11-08T16:41:06.235Z,21.73
2022-11-08T16:43:13.149Z,21.97
2022-11-08T16:45:16.867Z,17.88
2022-11-08T16:47:19.257Z,19.17
2022-11-08T16:49:22.431Z,22.88
2022-11-08T16:51:27.729Z,21.02
2022-11-08T16:53:30.235Z,19.42
2022-11-08T16:55:31.994Z,22.42
2022-11-08T16:57:35.370Z,23.13
2022-11-08T16:59:37.456Z,22.15
2022-11-08T17:01:39.988Z,25.40
2022-11-08T17:03:42.181Z,23.92
2022-11-08T17:05:44.619Z,21.90
2022-11-08T17:07:46.847Z,25.98
2022-11-08T17:09:49.415Z,19.73
2022-11-08T17:11:51.181Z,23.83
2022-11-08T17:13:53.162Z,26.08
2022-11-08T17:15:55.395Z,22.05
2022-11-08T17:17:58.868Z,21.60
2022-11-08T17:20:00.816Z,18.35
2022-11-08T17:22:03.045Z,23.05
2022-11-08T17:24:05.440Z,20.13
2022-11-08T17:26:09.123Z,24.30
2022-11-08T17:28:12.562Z,21.73
2022-11-08T17:32:16.827Z,21.30
2022-11-08T17:36:21.868Z,24.70
2022-11-08T17:38:23.970Z,23.15
2022-11-08T17:40:26.584Z,19.45
2022-11-08T17:42:33.979Z,18.25
2022-11-08T17:44:39.704Z,30.55
2022-11-08T17:46:41.935Z,26.23
2022-11-08T17:48:43.776Z,23.25
2022-11-08T17:50:48.892Z,26.55
2022-11-08T17:52:53.778Z,24.13
2022-11-08T17:54:55.893Z,20.63
2022-11-08T17:56:58.300Z,23.63
2022-11-08T17:59:00.552Z,24.67
2022-11-08T18:01:05.017Z,23.65
2022-11-08T18:03:12.495Z,28.52
2022-11-08T18:05:14.842Z,25.88
2022-11-08T18:07:16.780Z,27.58
2022-11-08T18:09:18.987Z,24.75
2022-11-08T18:11:21.541Z,25.33
2022-11-08T18:13:24.688Z,28.08
2022-11-08T18:15:26.791Z,26.25
2022-11-08T18:17:29.159Z,26.07
2022-11-08T18:19:31.232Z,27.50
2022-11-08T18:21:33.110Z,29.17
2022-11-08T18:23:35.543Z,29.85
2022-11-08T18:25:37.345Z,29.45
2022-11-08T18:27:39.522Z,25.73
2022-11-08T18:29:41.634Z,27.73
2022-11-08T18:31:43.621Z,26.67
2022-11-08T18:33:47.784Z,31.55
2022-11-08T18:35:50.023Z,33.08
2022-11-08T18:37:51.865Z,34.13
2022-11-08T18:39:53.761Z,34.75
2022-11-08T18:41:55.925Z,34.50
2022-11-08T18:43:59.691Z,34.00
2022-11-08T18:46:05.670Z,32.78
2022-11-08T18:48:08.111Z,35.72
2022-11-08T18:50:10.713Z,34.58
2022-11-08T18:52:12.776Z,35.15
2022-11-08T18:54:14.965Z,39.65
2022-11-08T18:56:16.938Z,33.50
2022-11-08T18:58:19.760Z,47.83
2022-11-08T19:00:22.014Z,37.10
2022-11-08T19:02:24.252Z,37.50
2022-11-08T19:04:26.143Z,37.40
2022-11-08T19:06:28.458Z,36.20
2022-11-08T19:08:30.819Z,39.75
2022-11-08T19:10:32.945Z,39.08
2022-11-08T19:12:35.331Z,40.60
2022-11-08T19:14:37.616Z,39.60
2022-11-08T19:16:39.407Z,38.60
2022-11-08T19:18:43.183Z,43.17
2022-11-08T19:20:44.952Z,40.42
2022-11-08T19:22:47.019Z,36.85
2022-11-08T19:24:49.183Z,37.80
2022-11-08T19:26:50.979Z,39.55
2022-11-08T19:28:57.125Z,39.22
2022-11-08T19:30:59.650Z,40.30
2022-11-08T19:33:01.509Z,41.47
2022-11-08T19:35:03.337Z,39.88
2022-11-08T19:37:05.930Z,42.67
2022-11-08T19:39:08.032Z,44.80
2022-11-08T19:41:13.328Z,38.78
2022-11-08T19:43:17.271Z,45.35
2022-11-08T19:45:19.296Z,41.05
2022-11-08T19:47:21.127Z,38.78
2022-11-08T19:49:26.321Z,36.90
2022-11-08T19:51:30.749Z,41.25
2022-11-08T19:53:32.778Z,41.67
2022-11-08T19:55:35.042Z,39.65
2022-11-08T19:57:36.954Z,43.20
2022-11-08T19:59:38.737Z,42.08
2022-11-08T20:01:41.208Z,43.20
2022-11-08T20:03:43.929Z,45.28
2022-11-08T20:05:50.331Z,43.15
2022-11-08T20:07:52.476Z,43.50
2022-11-08T20:09:56.033Z,40.95
2022-11-08T20:11:57.898Z,36.72
2022-11-08T20:14:01.215Z,42.83
2022-11-08T20:16:14.899Z,49.78
2022-11-08T20:18:17.404Z,45.95
2022-11-08T20:20:20.335Z,40.58
2022-11-08T20:22:22.214Z,45.78
2022-11-08T20:24:24.094Z,39.97
2022-11-08T20:26:26.884Z,43.33
2022-11-08T20:28:28.814Z,41.30
2022-11-08T20:30:31.027Z,38.47
2022-11-08T20:32:33.523Z,38.92
2022-11-08T20:34:35.343Z,37.67
2022-11-08T20:36:37.880Z,44.50
2022-11-08T20:40:43.973Z,39.45
2022-11-08T20:42:46.128Z,40.65
2022-11-08T20:44:48.456Z,40.70
2022-11-08T20:46:51.195Z,45.05
2022-11-08T20:49:00.188Z,38.25
2022-11-08T20:51:05.132Z,39.42
2022-11-08T20:53:06.975Z,36.58
2022-11-08T20:55:09.175Z,43.88
2022-11-08T20:57:11.384Z,41.75
2022-11-08T20:59:14.903Z,41.58
2022-11-08T21:01:20.248Z,47.42
2022-11-08T21:03:23.173Z,43.03
2022-11-08T21:05:25.196Z,41.53
2022-11-08T21:09:51.016Z,47.40
2022-11-08T21:11:55.218Z,37.50
2022-11-08T21:13:57.166Z,42.42
2022-11-08T21:16:19.800Z,48.35
2022-11-08T21:18:22.618Z,46.63
2022-11-08T21:20:24.547Z,43.28
2022-11-08T21:22:26.897Z,45.30
2022-11-08T21:24:28.714Z,41.10
2022-11-08T21:26:36.337Z,44.55
2022-11-08T21:28:39.259Z,45.45
2022-11-08T21:30:43.965Z,47.15
2022-11-08T21:32:45.862Z,44.92
2022-11-08T21:34:48.297Z,40.88
2022-11-08T21:36:50.123Z,41.60
2022-11-08T21:38:52.088Z,42.72
2022-11-08T21:40:55.061Z,43.35
2022-11-08T21:42:56.887Z,41.83
2022-11-08T21:44:58.654Z,41.20
2022-11-08T21:47:00.824Z,41.70
2022-11-08T21:49:02.858Z,39.03
2022-11-08T21:51:04.951Z,46.30
2022-11-08T21:53:08.211Z,48.17
2022-11-08T21:55:11.746Z,43.83
2022-11-08T21:57:13.615Z,36.58
2022-11-08T21:59:16.064Z,43.40
2022-11-08T22:01:18.148Z,47.25
2022-11-08T22:03:20.133Z,40.33
2022-11-08T22:05:22.726Z,45.77
2022-11-08T22:07:24.675Z,42.47
2022-11-08T22:09:26.575Z,47.13
2022-11-08T22:11:28.953Z,43.03
2022-11-08T22:13:30.930Z,49.67
2022-11-08T22:15:32.717Z,41.55
2022-11-08T22:17:35.740Z,39.67
2022-11-08T22:19:37.813Z,41.42
2022-11-08T22:21:40.524Z,39.25
2022-11-08T22:23:43.308Z,38.85
2022-11-08T22:25:45.165Z,40.40
2022-11-08T22:27:46.945Z,41.10
2022-11-08T22:29:49.109Z,42.00
2022-11-08T22:31:50.958Z,40.53
2022-11-08T22:33:52.875Z,43.40
2022-11-08T22:35:55.177Z,42.50
2022-11-08T22:37:57.085Z,37.75
2022-11-08T22:39:59.122Z,42.47
2022-11-08T22:42:01.413Z,42.40
2022-11-08T22:44:06.238Z,45.97
2022-11-08T22:46:11.015Z,40.80
2022-11-08T22:48:13.294Z,39.13
2022-11-08T22:50:15.107Z,39.58
2022-11-08T22:52:17.095Z,49.33
2022-11-08T22:54:19.217Z,39.85
2022-11-08T22:56:21.488Z,42.17
2022-11-08T22:58:23.278Z,47.50
2022-11-08T23:00:25.662Z,40.65
2022-11-08T23:02:32.706Z,42.90
2022-11-08T23:04:34.984Z,49.00
2022-11-08T23:06:40.882Z,42.97
2022-11-08T23:08:43.868Z,42.00
2022-11-08T23:11:04.885Z,46.53
2022-11-08T23:13:26.918Z,43.17
2022-11-08T23:15:47.628Z,50.00
2022-11-08T23:17:49.401Z,42.85
2022-11-08T23:20:10.236Z,43.97
2022-11-08T23:22:35.729Z,40.75
2022-11-08T23:24:37.821Z,44.45
2022-11-08T23:26:58.451Z,43.00
2022-11-08T23:29:18.964Z,46.65
2022-11-08T23:31:35.661Z,44.17
2022-11-08T23:33:43.722Z,45.22
2022-11-08T23:36:05.474Z,44.25
2022-11-08T23:38:07.289Z,44.72
2022-11-08T23:40:30.187Z,43.70
2022-11-08T23:42:51.089Z,40.38
2022-11-08T23:44:52.897Z,43.83
2022-11-08T23:46:58.012Z,42.90
2022-11-08T23:48:59.889Z,43.90
2022-11-08T23:51:02.205Z,43.10
2022-11-08T23:53:04.351Z,43.38
2022-11-08T23:55:06.664Z,41.67
2022-11-08T23:57:08.465Z,42.00
2022-11-08T23:59:11.858Z,43.03
